sensor_id;sensor_type;location;lat;lon;timestamp;P1;durP1;ratioP1;P2;durP2;ratioP2
44985;SDS011;30721;49.380;7.736;2023-12-04T00:01:49;14.85;;;7.78;;
44985;SDS011;30721;49.380;7.736;2023-12-04T00:04:15;17.75;;;8.05;;
44985;SDS011;30721;49.380;7.736;2023-12-04T00:06:41;14.38;;;7.32;;
44985;SDS011;30721;49.380;7.736;2023-12-04T00:09:06;13.23;;;7.18;;
44985;SDS011;30721;49.380;7.736;2023-12-04T00:11:32;12.75;;;7.13;;
44985;SDS011;30721;49.380;7.736;2023-12-04T00:13:57;11.57;;;6.07;;
44985;SDS011;30721;49.380;7.736;2023-12-04T00:16:23;12.75;;;6.50;;
44985;SDS011;30721;49.380;7.736;2023-12-04T00:18:48;13.13;;;6.75;;
44985;SDS011;30721;49.380;7.736;2023-12-04T00:21:14;13.02;;;7.45;;
44985;SDS011;30721;49.380;7.736;2023-12-04T00:23:39;13.05;;;6.80;;
44985;SDS011;30721;49.380;7.736;2023-12-04T00:26:05;14.82;;;7.25;;
44985;SDS011;30721;49.380;7.736;2023-12-04T00:28:31;15.93;;;7.85;;
44985;SDS011;30721;49.380;7.736;2023-12-04T00:30:56;15.85;;;7.60;;
44985;SDS011;30721;49.380;7.736;2023-12-04T00:33:21;18.25;;;8.65;;
44985;SDS011;30721;49.380;7.736;2023-12-04T00:35:47;16.50;;;7.72;;
44985;SDS011;30721;49.380;7.736;2023-12-04T00:38:12;16.13;;;8.30;;
44985;SDS011;30721;49.380;7.736;2023-12-04T00:40:37;15.43;;;8.02;;
44985;SDS011;30721;49.380;7.736;2023-12-04T00:43:03;16.15;;;7.70;;
44985;SDS011;30721;49.380;7.736;2023-12-04T00:45:28;13.52;;;7.30;;
44985;SDS011;30721;49.380;7.736;2023-12-04T00:47:53;15.38;;;7.15;;
44985;SDS011;30721;49.380;7.736;2023-12-04T00:50:19;12.30;;;6.50;;
44985;SDS011;30721;49.380;7.736;2023-12-04T00:52:44;14.35;;;7.63;;
44985;SDS011;30721;49.380;7.736;2023-12-04T00:55:09;12.55;;;6.95;;
44985;SDS011;30721;49.380;7.736;2023-12-04T00:57:35;14.35;;;7.25;;
44985;SDS011;30721;49.380;7.736;2023-12-04T01:00:00;11.93;;;6.60;;
44985;SDS011;30721;49.380;7.736;2023-12-04T01:02:26;11.93;;;6.70;;
44985;SDS011;30721;49.380;7.736;2023-12-04T01:04:51;12.45;;;6.63;;
44985;SDS011;30721;49.380;7.736;2023-12-04T01:07:16;15.68;;;7.18;;
44985;SDS011;30721;49.380;7.736;2023-12-04T01:09:42;14.70;;;7.10;;
44985;SDS011;30721;49.380;7.736;2023-12-04T01:12:07;14.57;;;6.75;;
44985;SDS011;30721;49.380;7.736;2023-12-04T01:14:32;13.02;;;6.75;;
44985;SDS011;30721;49.380;7.736;2023-12-04T01:16:58;13.43;;;6.40;;
44985;SDS011;30721;49.380;7.736;2023-12-04T01:19:23;12.15;;;6.22;;
44985;SDS011;30721;49.380;7.736;2023-12-04T01:21:49;14.13;;;7.07;;
44985;SDS011;30721;49.380;7.736;2023-12-04T01:24:14;13.05;;;6.05;;
44985;SDS011;30721;49.380;7.736;2023-12-04T01:26:40;14.77;;;6.80;;
44985;SDS011;30721;49.380;7.736;2023-12-04T01:29:05;11.32;;;5.88;;
44985;SDS011;30721;49.380;7.736;2023-12-04T01:31:31;10.73;;;5.60;;
44985;SDS011;30721;49.380;7.736;2023-12-04T01:33:56;9.65;;;4.72;;
44985;SDS011;30721;49.380;7.736;2023-12-04T01:36:22;9.10;;;4.40;;
44985;SDS011;30721;49.380;7.736;2023-12-04T01:38:47;9.85;;;4.65;;
44985;SDS011;30721;49.380;7.736;2023-12-04T01:41:12;10.23;;;5.00;;
44985;SDS011;30721;49.380;7.736;2023-12-04T01:43:38;10.93;;;5.43;;
44985;SDS011;30721;49.380;7.736;2023-12-04T01:46:03;11.57;;;5.45;;
44985;SDS011;30721;49.380;7.736;2023-12-04T01:48:29;12.57;;;7.32;;
44985;SDS011;30721;49.380;7.736;2023-12-04T01:50:56;16.30;;;7.93;;
44985;SDS011;30721;49.380;7.736;2023-12-04T01:53:22;16.83;;;8.55;;
44985;SDS011;30721;49.380;7.736;2023-12-04T01:55:48;16.55;;;8.10;;
44985;SDS011;30721;49.380;7.736;2023-12-04T01:58:14;15.95;;;7.65;;
44985;SDS011;30721;49.380;7.736;2023-12-04T02:00:39;15.10;;;8.45;;
44985;SDS011;30721;49.380;7.736;2023-12-04T02:03:05;13.80;;;7.95;;
44985;SDS011;30721;49.380;7.736;2023-12-04T02:05:31;14.15;;;7.28;;
44985;SDS011;30721;49.380;7.736;2023-12-04T02:07:57;13.65;;;6.78;;
44985;SDS011;30721;49.380;7.736;2023-12-04T02:10:22;10.40;;;5.72;;
44985;SDS011;30721;49.380;7.736;2023-12-04T02:12:48;12.40;;;6.10;;
44985;SDS011;30721;49.380;7.736;2023-12-04T02:15:14;10.95;;;5.00;;
44985;SDS011;30721;49.380;7.736;2023-12-04T02:17:40;9.20;;;5.25;;
44985;SDS011;30721;49.380;7.736;2023-12-04T02:20:07;11.70;;;5.82;;
44985;SDS011;30721;49.380;7.736;2023-12-04T02:22:33;11.38;;;6.18;;
44985;SDS011;30721;49.380;7.736;2023-12-04T02:24:58;12.93;;;6.05;;
44985;SDS011;30721;49.380;7.736;2023-12-04T02:27:26;10.25;;;5.45;;
44985;SDS011;30721;49.380;7.736;2023-12-04T02:30:04;10.50;;;5.88;;
44985;SDS011;30721;49.380;7.736;2023-12-04T02:32:31;10.07;;;6.28;;
44985;SDS011;30721;49.380;7.736;2023-12-04T02:34:59;11.90;;;5.75;;
44985;SDS011;30721;49.380;7.736;2023-12-04T02:37:27;11.32;;;6.30;;
44985;SDS011;30721;49.380;7.736;2023-12-04T02:39:53;19.65;;;9.25;;
44985;SDS011;30721;49.380;7.736;2023-12-04T02:42:21;14.85;;;8.00;;
44985;SDS011;30721;49.380;7.736;2023-12-04T02:44:47;11.02;;;5.97;;
44985;SDS011;30721;49.380;7.736;2023-12-04T02:47:12;11.48;;;5.60;;
44985;SDS011;30721;49.380;7.736;2023-12-04T02:49:38;11.48;;;5.20;;
44985;SDS011;30721;49.380;7.736;2023-12-04T02:52:04;7.22;;;4.22;;
44985;SDS011;30721;49.380;7.736;2023-12-04T02:54:30;9.65;;;4.32;;
44985;SDS011;30721;49.380;7.736;2023-12-04T02:56:55;9.07;;;4.47;;
44985;SDS011;30721;49.380;7.736;2023-12-04T02:59:20;10.70;;;4.70;;
44985;SDS011;30721;49.380;7.736;2023-12-04T03:01:46;9.30;;;4.70;;
44985;SDS011;30721;49.380;7.736;2023-12-04T03:04:11;8.18;;;4.00;;
44985;SDS011;30721;49.380;7.736;2023-12-04T03:06:37;9.07;;;4.88;;
44985;SDS011;30721;49.380;7.736;2023-12-04T03:09:03;10.77;;;4.90;;
44985;SDS011;30721;49.380;7.736;2023-12-04T03:11:29;8.05;;;4.35;;
44985;SDS011;30721;49.380;7.736;2023-12-04T03:13:54;8.35;;;4.43;;
44985;SDS011;30721;49.380;7.736;2023-12-04T03:16:20;11.63;;;4.97;;
44985;SDS011;30721;49.380;7.736;2023-12-04T03:18:45;8.98;;;4.40;;
44985;SDS011;30721;49.380;7.736;2023-12-04T03:21:10;8.57;;;4.80;;
44985;SDS011;30721;49.380;7.736;2023-12-04T03:23:36;9.52;;;5.22;;
44985;SDS011;30721;49.380;7.736;2023-12-04T03:26:01;9.23;;;5.13;;
44985;SDS011;30721;49.380;7.736;2023-12-04T03:28:27;9.57;;;4.78;;
44985;SDS011;30721;49.380;7.736;2023-12-04T03:30:53;9.85;;;5.07;;
44985;SDS011;30721;49.380;7.736;2023-12-04T03:33:18;9.55;;;4.25;;
44985;SDS011;30721;49.380;7.736;2023-12-04T03:35:44;7.47;;;4.32;;
44985;SDS011;30721;49.380;7.736;2023-12-04T03:38:09;8.93;;;4.97;;
44985;SDS011;30721;49.380;7.736;2023-12-04T03:40:34;10.48;;;5.03;;
44985;SDS011;30721;49.380;7.736;2023-12-04T03:43:00;8.88;;;4.72;;
44985;SDS011;30721;49.380;7.736;2023-12-04T03:45:25;9.77;;;4.55;;
44985;SDS011;30721;49.380;7.736;2023-12-04T03:47:50;11.00;;;5.63;;
44985;SDS011;30721;49.380;7.736;2023-12-04T03:50:16;11.63;;;5.00;;
44985;SDS011;30721;49.380;7.736;2023-12-04T03:52:41;8.65;;;5.13;;
44985;SDS011;30721;49.380;7.736;2023-12-04T03:55:07;11.35;;;4.50;;
44985;SDS011;30721;49.380;7.736;2023-12-04T03:57:33;8.35;;;5.10;;
44985;SDS011;30721;49.380;7.736;2023-12-04T03:59:58;9.25;;;5.30;;
44985;SDS011;30721;49.380;7.736;2023-12-04T04:02:24;7.85;;;4.45;;
44985;SDS011;30721;49.380;7.736;2023-12-04T04:04:49;9.35;;;4.40;;
44985;SDS011;30721;49.380;7.736;2023-12-04T04:07:15;10.30;;;3.92;;
44985;SDS011;30721;49.380;7.736;2023-12-04T04:09:41;8.18;;;4.07;;
44985;SDS011;30721;49.380;7.736;2023-12-04T04:12:07;8.02;;;4.88;;
44985;SDS011;30721;49.380;7.736;2023-12-04T04:14:32;7.25;;;4.38;;
44985;SDS011;30721;49.380;7.736;2023-12-04T04:16:58;9.63;;;4.70;;
44985;SDS011;30721;49.380;7.736;2023-12-04T04:19:23;9.20;;;4.72;;
44985;SDS011;30721;49.380;7.736;2023-12-04T04:21:48;9.65;;;4.85;;
44985;SDS011;30721;49.380;7.736;2023-12-04T04:24:14;12.00;;;5.30;;
44985;SDS011;30721;49.380;7.736;2023-12-04T04:26:39;8.93;;;4.63;;
44985;SDS011;30721;49.380;7.736;2023-12-04T04:29:04;8.60;;;4.72;;
44985;SDS011;30721;49.380;7.736;2023-12-04T04:31:30;8.68;;;4.65;;
44985;SDS011;30721;49.380;7.736;2023-12-04T04:33:55;11.15;;;5.70;;
44985;SDS011;30721;49.380;7.736;2023-12-04T04:36:20;8.98;;;4.70;;
44985;SDS011;30721;49.380;7.736;2023-12-04T04:38:46;8.90;;;4.38;;
44985;SDS011;30721;49.380;7.736;2023-12-04T04:41:14;8.75;;;4.53;;
44985;SDS011;30721;49.380;7.736;2023-12-04T04:43:40;12.27;;;4.88;;
44985;SDS011;30721;49.380;7.736;2023-12-04T04:46:06;6.38;;;4.05;;
44985;SDS011;30721;49.380;7.736;2023-12-04T04:48:31;8.93;;;4.18;;
44985;SDS011;30721;49.380;7.736;2023-12-04T04:50:57;10.82;;;4.75;;
44985;SDS011;30721;49.380;7.736;2023-12-04T04:53:22;7.85;;;4.55;;
44985;SDS011;30721;49.380;7.736;2023-12-04T04:55:48;8.88;;;4.38;;
44985;SDS011;30721;49.380;7.736;2023-12-04T04:58:13;8.25;;;4.30;;
44985;SDS011;30721;49.380;7.736;2023-12-04T05:00:38;9.25;;;5.38;;
44985;SDS011;30721;49.380;7.736;2023-12-04T05:03:04;8.68;;;5.13;;
44985;SDS011;30721;49.380;7.736;2023-12-04T05:05:29;10.40;;;5.35;;
44985;SDS011;30721;49.380;7.736;2023-12-04T05:07:54;10.38;;;4.72;;
44985;SDS011;30721;49.380;7.736;2023-12-04T05:10:20;8.88;;;4.93;;
44985;SDS011;30721;49.380;7.736;2023-12-04T05:12:45;10.52;;;5.68;;
44985;SDS011;30721;49.380;7.736;2023-12-04T05:15:10;12.20;;;5.80;;
44985;SDS011;30721;49.380;7.736;2023-12-04T05:17:36;13.32;;;6.38;;
44985;SDS011;30721;49.380;7.736;2023-12-04T05:20:01;10.35;;;5.63;;
44985;SDS011;30721;49.380;7.736;2023-12-04T05:22:26;9.82;;;6.00;;
44985;SDS011;30721;49.380;7.736;2023-12-04T05:24:52;11.10;;;5.75;;
44985;SDS011;30721;49.380;7.736;2023-12-04T05:27:17;10.50;;;6.40;;
44985;SDS011;30721;49.380;7.736;2023-12-04T05:29:42;10.63;;;5.50;;
44985;SDS011;30721;49.380;7.736;2023-12-04T05:32:08;10.15;;;5.43;;
44985;SDS011;30721;49.380;7.736;2023-12-04T05:34:33;9.93;;;5.40;;
44985;SDS011;30721;49.380;7.736;2023-12-04T05:36:58;10.10;;;5.47;;
44985;SDS011;30721;49.380;7.736;2023-12-04T05:39:24;10.82;;;5.10;;
44985;SDS011;30721;49.380;7.736;2023-12-04T05:41:49;10.98;;;5.85;;
44985;SDS011;30721;49.380;7.736;2023-12-04T05:44:14;11.23;;;5.93;;
44985;SDS011;30721;49.380;7.736;2023-12-04T05:46:40;10.65;;;5.65;;
44985;SDS011;30721;49.380;7.736;2023-12-04T05:49:05;11.30;;;5.75;;
44985;SDS011;30721;49.380;7.736;2023-12-04T05:51:31;13.63;;;6.35;;
44985;SDS011;30721;49.380;7.736;2023-12-04T05:53:56;13.73;;;8.82;;
44985;SDS011;30721;49.380;7.736;2023-12-04T05:56:21;15.50;;;9.05;;
44985;SDS011;30721;49.380;7.736;2023-12-04T05:58:47;17.80;;;9.95;;
44985;SDS011;30721;49.380;7.736;2023-12-04T06:01:12;15.38;;;9.05;;
44985;SDS011;30721;49.380;7.736;2023-12-04T06:03:40;16.50;;;8.15;;
44985;SDS011;30721;49.380;7.736;2023-12-04T06:06:05;13.18;;;7.65;;
44985;SDS011;30721;49.380;7.736;2023-12-04T06:08:31;12.60;;;6.70;;
44985;SDS011;30721;49.380;7.736;2023-12-04T06:10:56;13.77;;;6.38;;
44985;SDS011;30721;49.380;7.736;2023-12-04T06:13:21;18.92;;;11.73;;
44985;SDS011;30721;49.380;7.736;2023-12-04T06:15:47;17.67;;;12.13;;
44985;SDS011;30721;49.380;7.736;2023-12-04T06:18:12;10.07;;;6.45;;
44985;SDS011;30721;49.380;7.736;2023-12-04T06:20:37;11.20;;;5.97;;
44985;SDS011;30721;49.380;7.736;2023-12-04T06:23:03;10.85;;;5.47;;
44985;SDS011;30721;49.380;7.736;2023-12-04T06:25:29;12.68;;;5.55;;
44985;SDS011;30721;49.380;7.736;2023-12-04T06:27:54;9.88;;;4.50;;
44985;SDS011;30721;49.380;7.736;2023-12-04T06:30:20;10.38;;;6.57;;
44985;SDS011;30721;49.380;7.736;2023-12-04T06:32:45;12.65;;;7.30;;
44985;SDS011;30721;49.380;7.736;2023-12-04T06:35:11;12.23;;;7.07;;
44985;SDS011;30721;49.380;7.736;2023-12-04T06:37:40;10.70;;;5.68;;
44985;SDS011;30721;49.380;7.736;2023-12-04T06:40:06;10.20;;;5.53;;
44985;SDS011;30721;49.380;7.736;2023-12-04T06:42:34;11.00;;;5.32;;
44985;SDS011;30721;49.380;7.736;2023-12-04T06:45:00;10.63;;;5.57;;
44985;SDS011;30721;49.380;7.736;2023-12-04T06:47:26;11.10;;;7.03;;
44985;SDS011;30721;49.380;7.736;2023-12-04T06:49:53;13.73;;;6.47;;
44985;SDS011;30721;49.380;7.736;2023-12-04T06:52:18;10.75;;;6.05;;
44985;SDS011;30721;49.380;7.736;2023-12-04T06:54:44;10.30;;;5.60;;
44985;SDS011;30721;49.380;7.736;2023-12-04T06:57:09;11.00;;;6.05;;
44985;SDS011;30721;49.380;7.736;2023-12-04T06:59:35;11.52;;;6.13;;
44985;SDS011;30721;49.380;7.736;2023-12-04T07:02:00;10.70;;;6.30;;
44985;SDS011;30721;49.380;7.736;2023-12-04T07:04:25;11.23;;;6.38;;
44985;SDS011;30721;49.380;7.736;2023-12-04T07:06:51;10.95;;;5.75;;
44985;SDS011;30721;49.380;7.736;2023-12-04T07:09:16;9.85;;;5.25;;
44985;SDS011;30721;49.380;7.736;2023-12-04T07:11:45;10.45;;;5.90;;
44985;SDS011;30721;49.380;7.736;2023-12-04T07:14:11;9.43;;;5.10;;
44985;SDS011;30721;49.380;7.736;2023-12-04T07:16:40;10.00;;;5.57;;
44985;SDS011;30721;49.380;7.736;2023-12-04T07:19:07;10.82;;;5.40;;
44985;SDS011;30721;49.380;7.736;2023-12-04T07:21:32;9.68;;;5.22;;
44985;SDS011;30721;49.380;7.736;2023-12-04T07:23:58;10.48;;;5.68;;
44985;SDS011;30721;49.380;7.736;2023-12-04T07:26:23;10.63;;;5.28;;
44985;SDS011;30721;49.380;7.736;2023-12-04T07:28:48;10.18;;;5.72;;
44985;SDS011;30721;49.380;7.736;2023-12-04T07:31:14;9.00;;;5.43;;
44985;SDS011;30721;49.380;7.736;2023-12-04T07:33:39;12.52;;;6.80;;
44985;SDS011;30721;49.380;7.736;2023-12-04T07:36:04;11.95;;;6.47;;
44985;SDS011;30721;49.380;7.736;2023-12-04T07:38:30;12.82;;;5.55;;
44985;SDS011;30721;49.380;7.736;2023-12-04T07:40:55;18.33;;;9.13;;
44985;SDS011;30721;49.380;7.736;2023-12-04T07:43:21;14.18;;;7.80;;
44985;SDS011;30721;49.380;7.736;2023-12-04T07:45:46;13.75;;;7.85;;
44985;SDS011;30721;49.380;7.736;2023-12-04T07:48:12;20.20;;;12.07;;
44985;SDS011;30721;49.380;7.736;2023-12-04T07:50:37;14.60;;;7.60;;
44985;SDS011;30721;49.380;7.736;2023-12-04T07:53:03;15.38;;;8.93;;
44985;SDS011;30721;49.380;7.736;2023-12-04T07:55:28;41.03;;;24.65;;
44985;SDS011;30721;49.380;7.736;2023-12-04T07:57:54;27.60;;;16.48;;
44985;SDS011;30721;49.380;7.736;2023-12-04T08:00:21;18.60;;;10.23;;
44985;SDS011;30721;49.380;7.736;2023-12-04T08:02:47;29.00;;;13.90;;
44985;SDS011;30721;49.380;7.736;2023-12-04T08:05:13;28.45;;;12.77;;
44985;SDS011;30721;49.380;7.736;2023-12-04T08:07:39;24.63;;;12.40;;
44985;SDS011;30721;49.380;7.736;2023-12-04T08:10:05;18.85;;;11.00;;
44985;SDS011;30721;49.380;7.736;2023-12-04T08:12:31;14.88;;;8.80;;
44985;SDS011;30721;49.380;7.736;2023-12-04T08:14:56;13.65;;;7.72;;
44985;SDS011;30721;49.380;7.736;2023-12-04T08:17:23;12.18;;;6.38;;
44985;SDS011;30721;49.380;7.736;2023-12-04T08:19:48;12.40;;;6.40;;
44985;SDS011;30721;49.380;7.736;2023-12-04T08:22:14;12.55;;;6.28;;
44985;SDS011;30721;49.380;7.736;2023-12-04T08:24:39;14.10;;;7.55;;
44985;SDS011;30721;49.380;7.736;2023-12-04T08:27:04;13.95;;;7.15;;
44985;SDS011;30721;49.380;7.736;2023-12-04T08:29:30;15.73;;;7.10;;
44985;SDS011;30721;49.380;7.736;2023-12-04T08:31:55;14.20;;;7.60;;
44985;SDS011;30721;49.380;7.736;2023-12-04T08:34:20;13.10;;;7.55;;
44985;SDS011;30721;49.380;7.736;2023-12-04T08:36:46;15.40;;;8.73;;
44985;SDS011;30721;49.380;7.736;2023-12-04T08:39:11;21.70;;;10.25;;
44985;SDS011;30721;49.380;7.736;2023-12-04T08:41:37;22.45;;;11.70;;
44985;SDS011;30721;49.380;7.736;2023-12-04T08:44:02;24.15;;;13.15;;
44985;SDS011;30721;49.380;7.736;2023-12-04T08:46:27;36.20;;;16.30;;
44985;SDS011;30721;49.380;7.736;2023-12-04T08:48:53;29.35;;;14.70;;
44985;SDS011;30721;49.380;7.736;2023-12-04T08:51:18;27.70;;;14.52;;
44985;SDS011;30721;49.380;7.736;2023-12-04T08:53:44;23.83;;;12.77;;
44985;SDS011;30721;49.380;7.736;2023-12-04T08:56:10;20.77;;;10.68;;
44985;SDS011;30721;49.380;7.736;2023-12-04T08:58:35;20.83;;;10.25;;
44985;SDS011;30721;49.380;7.736;2023-12-04T09:01:01;13.82;;;7.90;;
44985;SDS011;30721;49.380;7.736;2023-12-04T09:03:26;15.85;;;8.80;;
44985;SDS011;30721;49.380;7.736;2023-12-04T09:05:52;14.02;;;7.63;;
44985;SDS011;30721;49.380;7.736;2023-12-04T09:08:18;13.95;;;8.10;;
44985;SDS011;30721;49.380;7.736;2023-12-04T09:10:46;13.20;;;7.35;;
44985;SDS011;30721;49.380;7.736;2023-12-04T09:13:12;11.82;;;7.57;;
44985;SDS011;30721;49.380;7.736;2023-12-04T09:15:39;12.02;;;6.75;;
44985;SDS011;30721;49.380;7.736;2023-12-04T09:18:04;10.63;;;5.78;;
44985;SDS011;30721;49.380;7.736;2023-12-04T09:20:30;10.90;;;6.30;;
44985;SDS011;30721;49.380;7.736;2023-12-04T09:22:55;16.60;;;8.27;;
44985;SDS011;30721;49.380;7.736;2023-12-04T09:25:20;18.90;;;8.80;;
44985;SDS011;30721;49.380;7.736;2023-12-04T09:27:46;14.52;;;6.95;;
44985;SDS011;30721;49.380;7.736;2023-12-04T09:30:11;11.70;;;6.32;;
44985;SDS011;30721;49.380;7.736;2023-12-04T09:32:37;8.70;;;4.47;;
44985;SDS011;30721;49.380;7.736;2023-12-04T09:35:02;7.40;;;4.50;;
44985;SDS011;30721;49.380;7.736;2023-12-04T09:37:28;7.25;;;3.70;;
44985;SDS011;30721;49.380;7.736;2023-12-04T09:39:53;6.40;;;3.70;;
44985;SDS011;30721;49.380;7.736;2023-12-04T09:42:19;6.20;;;3.30;;
44985;SDS011;30721;49.380;7.736;2023-12-04T09:44:44;5.88;;;2.92;;
44985;SDS011;30721;49.380;7.736;2023-12-04T09:47:13;6.25;;;2.95;;
44985;SDS011;30721;49.380;7.736;2023-12-04T09:49:41;4.50;;;2.45;;
44985;SDS011;30721;49.380;7.736;2023-12-04T09:52:06;5.75;;;2.88;;
44985;SDS011;30721;49.380;7.736;2023-12-04T09:54:32;6.43;;;3.42;;
44985;SDS011;30721;49.380;7.736;2023-12-04T09:56:58;7.47;;;3.08;;
44985;SDS011;30721;49.380;7.736;2023-12-04T09:59:24;6.32;;;3.35;;
44985;SDS011;30721;49.380;7.736;2023-12-04T10:01:54;8.38;;;2.53;;
44985;SDS011;30721;49.380;7.736;2023-12-04T10:04:20;5.68;;;2.97;;
44985;SDS011;30721;49.380;7.736;2023-12-04T10:06:46;5.00;;;2.97;;
44985;SDS011;30721;49.380;7.736;2023-12-04T10:09:16;6.43;;;2.97;;
44985;SDS011;30721;49.380;7.736;2023-12-04T10:11:42;6.53;;;3.63;;
44985;SDS011;30721;49.380;7.736;2023-12-04T10:14:17;8.75;;;3.50;;
44985;SDS011;30721;49.380;7.736;2023-12-04T10:16:43;6.45;;;3.13;;
44985;SDS011;30721;49.380;7.736;2023-12-04T10:21:42;6.07;;;3.10;;
44985;SDS011;30721;49.380;7.736;2023-12-04T10:24:07;4.57;;;2.30;;
44985;SDS011;30721;49.380;7.736;2023-12-04T10:26:33;4.88;;;2.42;;
44985;SDS011;30721;49.380;7.736;2023-12-04T10:28:59;5.43;;;2.50;;
44985;SDS011;30721;49.380;7.736;2023-12-04T10:31:25;5.38;;;2.22;;
44985;SDS011;30721;49.380;7.736;2023-12-04T10:33:51;3.60;;;2.03;;
44985;SDS011;30721;49.380;7.736;2023-12-04T10:36:16;5.15;;;2.22;;
44985;SDS011;30721;49.380;7.736;2023-12-04T10:38:42;4.28;;;2.33;;
44985;SDS011;30721;49.380;7.736;2023-12-04T10:41:11;4.10;;;2.33;;
44985;SDS011;30721;49.380;7.736;2023-12-04T10:43:38;4.35;;;2.35;;
44985;SDS011;30721;49.380;7.736;2023-12-04T10:46:11;4.30;;;2.50;;
44985;SDS011;30721;49.380;7.736;2023-12-04T10:48:37;4.90;;;2.80;;
44985;SDS011;30721;49.380;7.736;2023-12-04T10:51:03;4.75;;;2.25;;
44985;SDS011;30721;49.380;7.736;2023-12-04T10:53:30;4.78;;;2.45;;
44985;SDS011;30721;49.380;7.736;2023-12-04T10:55:56;4.43;;;2.30;;
44985;SDS011;30721;49.380;7.736;2023-12-04T10:58:21;4.28;;;2.15;;
44985;SDS011;30721;49.380;7.736;2023-12-04T11:00:51;4.03;;;2.08;;
44985;SDS011;30721;49.380;7.736;2023-12-04T11:03:20;4.35;;;2.20;;
44985;SDS011;30721;49.380;7.736;2023-12-04T11:05:51;4.63;;;2.42;;
44985;SDS011;30721;49.380;7.736;2023-12-04T11:08:20;4.25;;;2.42;;
44985;SDS011;30721;49.380;7.736;2023-12-04T11:10:56;5.95;;;2.58;;
44985;SDS011;30721;49.380;7.736;2023-12-04T11:13:27;5.80;;;2.83;;
44985;SDS011;30721;49.380;7.736;2023-12-04T11:15:55;4.45;;;2.60;;
44985;SDS011;30721;49.380;7.736;2023-12-04T11:18:24;7.70;;;3.20;;
44985;SDS011;30721;49.380;7.736;2023-12-04T11:20:52;4.55;;;2.40;;
44985;SDS011;30721;49.380;7.736;2023-12-04T11:23:21;4.43;;;2.60;;
44985;SDS011;30721;49.380;7.736;2023-12-04T11:25:47;4.32;;;2.40;;
44985;SDS011;30721;49.380;7.736;2023-12-04T11:28:13;4.80;;;2.58;;
44985;SDS011;30721;49.380;7.736;2023-12-04T11:30:38;4.65;;;2.22;;
44985;SDS011;30721;49.380;7.736;2023-12-04T11:33:04;2.60;;;1.80;;
44985;SDS011;30721;49.380;7.736;2023-12-04T11:35:30;5.28;;;2.72;;
44985;SDS011;30721;49.380;7.736;2023-12-04T11:37:55;4.80;;;2.10;;
44985;SDS011;30721;49.380;7.736;2023-12-04T11:40:22;4.07;;;2.65;;
44985;SDS011;30721;49.380;7.736;2023-12-04T11:42:47;5.75;;;2.05;;
44985;SDS011;30721;49.380;7.736;2023-12-04T11:45:22;4.90;;;2.30;;
44985;SDS011;30721;49.380;7.736;2023-12-04T11:47:54;3.50;;;2.35;;
44985;SDS011;30721;49.380;7.736;2023-12-04T11:50:20;4.30;;;1.88;;
44985;SDS011;30721;49.380;7.736;2023-12-04T11:52:47;4.18;;;1.88;;
44985;SDS011;30721;49.380;7.736;2023-12-04T11:55:15;3.47;;;1.70;;
44985;SDS011;30721;49.380;7.736;2023-12-04T11:57:51;3.13;;;1.70;;
44985;SDS011;30721;49.380;7.736;2023-12-04T12:05:18;2.50;;;1.63;;
44985;SDS011;30721;49.380;7.736;2023-12-04T12:07:44;4.57;;;2.15;;
44985;SDS011;30721;49.380;7.736;2023-12-04T12:10:10;2.45;;;1.30;;
44985;SDS011;30721;49.380;7.736;2023-12-04T12:12:36;3.35;;;1.90;;
44985;SDS011;30721;49.380;7.736;2023-12-04T12:15:02;2.95;;;1.70;;
44985;SDS011;30721;49.380;7.736;2023-12-04T12:17:27;2.88;;;1.67;;
44985;SDS011;30721;49.380;7.736;2023-12-04T12:19:53;3.75;;;1.80;;
44985;SDS011;30721;49.380;7.736;2023-12-04T12:22:21;3.75;;;1.60;;
44985;SDS011;30721;49.380;7.736;2023-12-04T12:24:47;3.28;;;1.42;;
44985;SDS011;30721;49.380;7.736;2023-12-04T12:27:12;2.88;;;1.90;;
44985;SDS011;30721;49.380;7.736;2023-12-04T12:29:38;2.17;;;1.38;;
44985;SDS011;30721;49.380;7.736;2023-12-04T12:32:03;2.28;;;1.50;;
44985;SDS011;30721;49.380;7.736;2023-12-04T12:34:29;2.83;;;1.63;;
44985;SDS011;30721;49.380;7.736;2023-12-04T12:36:56;2.75;;;1.58;;
44985;SDS011;30721;49.380;7.736;2023-12-04T12:39:22;3.10;;;1.90;;
44985;SDS011;30721;49.380;7.736;2023-12-04T12:41:48;2.88;;;1.75;;
44985;SDS011;30721;49.380;7.736;2023-12-04T12:44:14;2.38;;;1.80;;
44985;SDS011;30721;49.380;7.736;2023-12-04T12:46:40;2.67;;;1.63;;
44985;SDS011;30721;49.380;7.736;2023-12-04T12:49:05;2.80;;;1.65;;
44985;SDS011;30721;49.380;7.736;2023-12-04T12:51:31;3.40;;;2.05;;
44985;SDS011;30721;49.380;7.736;2023-12-04T12:53:57;2.30;;;1.55;;
44985;SDS011;30721;49.380;7.736;2023-12-04T12:56:24;3.45;;;2.17;;
44985;SDS011;30721;49.380;7.736;2023-12-04T12:58:50;3.10;;;1.75;;
44985;SDS011;30721;49.380;7.736;2023-12-04T13:01:15;3.40;;;1.98;;
44985;SDS011;30721;49.380;7.736;2023-12-04T13:03:40;3.15;;;1.58;;
44985;SDS011;30721;49.380;7.736;2023-12-04T13:06:10;3.05;;;2.10;;
44985;SDS011;30721;49.380;7.736;2023-12-04T13:08:37;2.97;;;1.90;;
44985;SDS011;30721;49.380;7.736;2023-12-04T13:11:02;2.38;;;1.52;;
44985;SDS011;30721;49.380;7.736;2023-12-04T13:13:28;4.28;;;2.00;;
44985;SDS011;30721;49.380;7.736;2023-12-04T13:15:53;3.53;;;2.30;;
44985;SDS011;30721;49.380;7.736;2023-12-04T13:18:19;4.47;;;2.00;;
44985;SDS011;30721;49.380;7.736;2023-12-04T13:20:44;3.42;;;1.92;;
44985;SDS011;30721;49.380;7.736;2023-12-04T13:23:10;2.83;;;2.10;;
44985;SDS011;30721;49.380;7.736;2023-12-04T13:25:37;3.20;;;1.98;;
44985;SDS011;30721;49.380;7.736;2023-12-04T13:28:02;2.67;;;1.90;;
44985;SDS011;30721;49.380;7.736;2023-12-04T13:30:28;3.17;;;1.80;;
44985;SDS011;30721;49.380;7.736;2023-12-04T13:32:53;3.22;;;1.92;;
44985;SDS011;30721;49.380;7.736;2023-12-04T13:35:20;3.53;;;1.92;;
44985;SDS011;30721;49.380;7.736;2023-12-04T13:37:45;3.33;;;2.40;;
44985;SDS011;30721;49.380;7.736;2023-12-04T13:40:11;4.40;;;2.45;;
44985;SDS011;30721;49.380;7.736;2023-12-04T13:42:41;2.33;;;1.70;;
44985;SDS011;30721;49.380;7.736;2023-12-04T13:45:26;3.03;;;2.00;;
44985;SDS011;30721;49.380;7.736;2023-12-04T13:47:51;3.15;;;2.00;;
44985;SDS011;30721;49.380;7.736;2023-12-04T13:50:18;3.20;;;2.03;;
44985;SDS011;30721;49.380;7.736;2023-12-04T13:52:43;3.50;;;2.00;;
44985;SDS011;30721;49.380;7.736;2023-12-04T13:55:09;3.47;;;2.00;;
44985;SDS011;30721;49.380;7.736;2023-12-04T13:58:01;3.30;;;2.00;;
44985;SDS011;30721;49.380;7.736;2023-12-04T14:00:29;3.17;;;2.20;;
44985;SDS011;30721;49.380;7.736;2023-12-04T14:02:55;3.30;;;2.33;;
44985;SDS011;30721;49.380;7.736;2023-12-04T14:05:29;3.67;;;2.03;;
44985;SDS011;30721;49.380;7.736;2023-12-04T14:07:57;3.70;;;2.08;;
44985;SDS011;30721;49.380;7.736;2023-12-04T14:10:24;2.90;;;1.90;;
44985;SDS011;30721;49.380;7.736;2023-12-04T14:12:51;3.72;;;2.47;;
44985;SDS011;30721;49.380;7.736;2023-12-04T14:15:16;3.75;;;2.47;;
44985;SDS011;30721;49.380;7.736;2023-12-04T14:17:42;4.13;;;2.17;;
44985;SDS011;30721;49.380;7.736;2023-12-04T14:20:07;3.47;;;1.95;;
44985;SDS011;30721;49.380;7.736;2023-12-04T14:22:39;2.95;;;2.10;;
44985;SDS011;30721;49.380;7.736;2023-12-04T14:25:06;4.95;;;3.10;;
44985;SDS011;30721;49.380;7.736;2023-12-04T14:27:32;5.18;;;3.38;;
44985;SDS011;30721;49.380;7.736;2023-12-04T14:29:57;3.35;;;2.55;;
44985;SDS011;30721;49.380;7.736;2023-12-04T14:32:23;3.88;;;2.50;;
44985;SDS011;30721;49.380;7.736;2023-12-04T14:34:48;4.22;;;2.75;;
44985;SDS011;30721;49.380;7.736;2023-12-04T14:37:13;4.53;;;2.78;;
44985;SDS011;30721;49.380;7.736;2023-12-04T14:39:39;3.30;;;2.60;;
44985;SDS011;30721;49.380;7.736;2023-12-04T14:42:04;3.55;;;2.30;;